sensor_id;sensor_type;location;lat;lon;timestamp;P1;durP1;ratioP1;P2;durP2;ratioP2
74401;SDS011;62837;51.082;13.744;2023-05-16T00:01:21;6.90;;;4.90;;
74401;SDS011;62837;51.082;13.744;2023-05-16T00:03:53;6.80;;;4.40;;
74401;SDS011;62837;51.082;13.744;2023-05-16T00:06:25;8.10;;;4.80;;
74401;SDS011;62837;51.082;13.744;2023-05-16T00:08:56;7.40;;;4.70;;
74401;SDS011;62837;51.082;13.744;2023-05-16T00:11:27;6.60;;;5.00;;
74401;SDS011;62837;51.082;13.744;2023-05-16T00:13:58;7.00;;;4.40;;
74401;SDS011;62837;51.082;13.744;2023-05-16T00:16:29;5.10;;;4.30;;
74401;SDS011;62837;51.082;13.744;2023-05-16T00:19:00;6.60;;;5.00;;
74401;SDS011;62837;51.082;13.744;2023-05-16T00:21:31;7.70;;;4.80;;
74401;SDS011;62837;51.082;13.744;2023-05-16T00:24:02;5.40;;;4.40;;
74401;SDS011;62837;51.082;13.744;2023-05-16T00:26:34;6.90;;;4.90;;
74401;SDS011;62837;51.082;13.744;2023-05-16T00:29:05;8.00;;;4.60;;
74401;SDS011;62837;51.082;13.744;2023-05-16T00:31:35;7.40;;;4.60;;
74401;SDS011;62837;51.082;13.744;2023-05-16T00:34:06;7.10;;;4.30;;
74401;SDS011;62837;51.082;13.744;2023-05-16T00:36:37;7.00;;;4.70;;
74401;SDS011;62837;51.082;13.744;2023-05-16T00:39:08;6.20;;;4.50;;
74401;SDS011;62837;51.082;13.744;2023-05-16T00:41:39;6.50;;;4.60;;
74401;SDS011;62837;51.082;13.744;2023-05-16T00:44:10;9.90;;;6.30;;
74401;SDS011;62837;51.082;13.744;2023-05-16T00:49:12;10.20;;;4.90;;
74401;SDS011;62837;51.082;13.744;2023-05-16T00:51:42;6.10;;;4.60;;
74401;SDS011;62837;51.082;13.744;2023-05-16T00:54:13;7.50;;;5.20;;
74401;SDS011;62837;51.082;13.744;2023-05-16T00:56:44;6.60;;;5.50;;
74401;SDS011;62837;51.082;13.744;2023-05-16T00:59:16;7.40;;;5.10;;
74401;SDS011;62837;51.082;13.744;2023-05-16T01:01:46;6.10;;;4.70;;
74401;SDS011;62837;51.082;13.744;2023-05-16T01:04:18;9.40;;;4.40;;
74401;SDS011;62837;51.082;13.744;2023-05-16T01:06:50;6.30;;;4.60;;
74401;SDS011;62837;51.082;13.744;2023-05-16T01:09:22;6.20;;;4.10;;
74401;SDS011;62837;51.082;13.744;2023-05-16T01:11:55;7.80;;;4.00;;
74401;SDS011;62837;51.082;13.744;2023-05-16T01:14:40;6.30;;;4.50;;
74401;SDS011;62837;51.082;13.744;2023-05-16T01:17:19;6.60;;;4.60;;
74401;SDS011;62837;51.082;13.744;2023-05-16T01:19:58;8.30;;;4.80;;
74401;SDS011;62837;51.082;13.744;2023-05-16T01:22:46;8.40;;;5.20;;
74401;SDS011;62837;51.082;13.744;2023-05-16T01:25:34;5.70;;;4.90;;
74401;SDS011;62837;51.082;13.744;2023-05-16T01:30:44;6.10;;;4.60;;
74401;SDS011;62837;51.082;13.744;2023-05-16T01:33:15;9.30;;;5.10;;
74401;SDS011;62837;51.082;13.744;2023-05-16T01:35:50;6.80;;;5.10;;
74401;SDS011;62837;51.082;13.744;2023-05-16T01:38:29;7.30;;;5.60;;
74401;SDS011;62837;51.082;13.744;2023-05-16T01:41:07;7.40;;;5.10;;
74401;SDS011;62837;51.082;13.744;2023-05-16T01:43:45;6.40;;;5.00;;
74401;SDS011;62837;51.082;13.744;2023-05-16T01:46:18;8.80;;;4.90;;
74401;SDS011;62837;51.082;13.744;2023-05-16T01:48:57;8.30;;;5.50;;
74401;SDS011;62837;51.082;13.744;2023-05-16T01:51:32;5.40;;;4.60;;
74401;SDS011;62837;51.082;13.744;2023-05-16T01:54:05;7.30;;;5.30;;
74401;SDS011;62837;51.082;13.744;2023-05-16T01:56:40;5.70;;;4.70;;
74401;SDS011;62837;51.082;13.744;2023-05-16T01:59:15;6.10;;;4.40;;
74401;SDS011;62837;51.082;13.744;2023-05-16T02:01:47;11.10;;;4.90;;
74401;SDS011;62837;51.082;13.744;2023-05-16T02:04:19;8.60;;;5.10;;
74401;SDS011;62837;51.082;13.744;2023-05-16T02:06:50;7.50;;;5.20;;
74401;SDS011;62837;51.082;13.744;2023-05-16T02:09:21;7.60;;;4.80;;
74401;SDS011;62837;51.082;13.744;2023-05-16T02:11:53;8.30;;;5.80;;
74401;SDS011;62837;51.082;13.744;2023-05-16T02:14:24;6.00;;;5.10;;
74401;SDS011;62837;51.082;13.744;2023-05-16T02:16:56;7.50;;;5.30;;
74401;SDS011;62837;51.082;13.744;2023-05-16T02:19:27;7.10;;;5.30;;
74401;SDS011;62837;51.082;13.744;2023-05-16T02:21:58;7.40;;;5.90;;
74401;SDS011;62837;51.082;13.744;2023-05-16T02:24:28;8.20;;;5.10;;
74401;SDS011;62837;51.082;13.744;2023-05-16T02:26:59;6.20;;;4.90;;
74401;SDS011;62837;51.082;13.744;2023-05-16T02:29:29;7.20;;;5.30;;
74401;SDS011;62837;51.082;13.744;2023-05-16T02:32:00;7.20;;;5.00;;
74401;SDS011;62837;51.082;13.744;2023-05-16T02:34:31;6.30;;;5.00;;
74401;SDS011;62837;51.082;13.744;2023-05-16T02:37:02;8.20;;;5.80;;
74401;SDS011;62837;51.082;13.744;2023-05-16T02:39:33;7.90;;;5.50;;
74401;SDS011;62837;51.082;13.744;2023-05-16T02:42:05;7.60;;;5.90;;
74401;SDS011;62837;51.082;13.744;2023-05-16T02:44:36;7.20;;;5.30;;
74401;SDS011;62837;51.082;13.744;2023-05-16T02:47:06;7.20;;;5.20;;
74401;SDS011;62837;51.082;13.744;2023-05-16T02:49:37;7.20;;;5.60;;
74401;SDS011;62837;51.082;13.744;2023-05-16T02:52:08;7.00;;;5.10;;
74401;SDS011;62837;51.082;13.744;2023-05-16T02:54:40;8.60;;;5.30;;
74401;SDS011;62837;51.082;13.744;2023-05-16T02:57:13;8.70;;;5.60;;
74401;SDS011;62837;51.082;13.744;2023-05-16T02:59:44;7.60;;;5.60;;
74401;SDS011;62837;51.082;13.744;2023-05-16T03:02:15;8.10;;;5.50;;
74401;SDS011;62837;51.082;13.744;2023-05-16T03:04:46;6.60;;;4.90;;
74401;SDS011;62837;51.082;13.744;2023-05-16T03:07:16;9.00;;;6.70;;
74401;SDS011;62837;51.082;13.744;2023-05-16T03:09:47;7.80;;;6.00;;
74401;SDS011;62837;51.082;13.744;2023-05-16T03:12:18;7.90;;;5.60;;
74401;SDS011;62837;51.082;13.744;2023-05-16T03:14:50;7.60;;;6.00;;
74401;SDS011;62837;51.082;13.744;2023-05-16T03:17:21;8.70;;;5.90;;
74401;SDS011;62837;51.082;13.744;2023-05-16T03:19:52;7.30;;;5.40;;
74401;SDS011;62837;51.082;13.744;2023-05-16T03:22:23;9.80;;;6.20;;
74401;SDS011;62837;51.082;13.744;2023-05-16T03:24:54;7.80;;;5.80;;
74401;SDS011;62837;51.082;13.744;2023-05-16T03:27:25;11.10;;;5.90;;
74401;SDS011;62837;51.082;13.744;2023-05-16T03:29:56;7.60;;;5.50;;
74401;SDS011;62837;51.082;13.744;2023-05-16T03:32:27;7.40;;;5.50;;
74401;SDS011;62837;51.082;13.744;2023-05-16T03:34:57;8.40;;;5.60;;
74401;SDS011;62837;51.082;13.744;2023-05-16T03:37:28;9.00;;;6.40;;
74401;SDS011;62837;51.082;13.744;2023-05-16T03:39:59;9.60;;;6.60;;
74401;SDS011;62837;51.082;13.744;2023-05-16T03:42:32;8.50;;;6.60;;
74401;SDS011;62837;51.082;13.744;2023-05-16T03:45:04;9.30;;;7.40;;
74401;SDS011;62837;51.082;13.744;2023-05-16T03:50:06;8.00;;;6.20;;
74401;SDS011;62837;51.082;13.744;2023-05-16T03:52:37;7.50;;;5.70;;
74401;SDS011;62837;51.082;13.744;2023-05-16T03:55:08;9.50;;;7.30;;
74401;SDS011;62837;51.082;13.744;2023-05-16T03:57:41;9.20;;;5.90;;
74401;SDS011;62837;51.082;13.744;2023-05-16T04:00:14;9.80;;;6.10;;
74401;SDS011;62837;51.082;13.744;2023-05-16T04:02:45;8.10;;;6.50;;
74401;SDS011;62837;51.082;13.744;2023-05-16T04:05:16;11.90;;;7.40;;
74401;SDS011;62837;51.082;13.744;2023-05-16T04:07:47;12.90;;;7.10;;
74401;SDS011;62837;51.082;13.744;2023-05-16T04:10:18;7.80;;;6.60;;
74401;SDS011;62837;51.082;13.744;2023-05-16T04:12:49;7.80;;;6.40;;
74401;SDS011;62837;51.082;13.744;2023-05-16T04:15:20;6.00;;;4.80;;
74401;SDS011;62837;51.082;13.744;2023-05-16T04:17:50;9.80;;;7.30;;
74401;SDS011;62837;51.082;13.744;2023-05-16T04:20:21;11.40;;;6.30;;
74401;SDS011;62837;51.082;13.744;2023-05-16T04:22:52;7.80;;;6.00;;
74401;SDS011;62837;51.082;13.744;2023-05-16T04:25:23;8.30;;;6.40;;
74401;SDS011;62837;51.082;13.744;2023-05-16T04:27:54;7.50;;;6.20;;
74401;SDS011;62837;51.082;13.744;2023-05-16T04:30:25;10.50;;;5.80;;
74401;SDS011;62837;51.082;13.744;2023-05-16T04:32:55;6.80;;;5.90;;
74401;SDS011;62837;51.082;13.744;2023-05-16T04:35:26;7.80;;;5.60;;
74401;SDS011;62837;51.082;13.744;2023-05-16T04:37:57;10.60;;;6.80;;
74401;SDS011;62837;51.082;13.744;2023-05-16T04:40:28;9.90;;;6.60;;
74401;SDS011;62837;51.082;13.744;2023-05-16T04:42:59;6.80;;;5.60;;
74401;SDS011;62837;51.082;13.744;2023-05-16T04:45:30;11.00;;;7.50;;
74401;SDS011;62837;51.082;13.744;2023-05-16T04:48:04;9.30;;;6.80;;
74401;SDS011;62837;51.082;13.744;2023-05-16T04:50:36;11.70;;;6.30;;
74401;SDS011;62837;51.082;13.744;2023-05-16T04:53:07;10.60;;;7.40;;
74401;SDS011;62837;51.082;13.744;2023-05-16T04:55:37;10.10;;;5.90;;
74401;SDS011;62837;51.082;13.744;2023-05-16T04:58:09;10.20;;;7.10;;
74401;SDS011;62837;51.082;13.744;2023-05-16T05:00:40;9.40;;;5.40;;
74401;SDS011;62837;51.082;13.744;2023-05-16T05:03:11;8.90;;;5.70;;
74401;SDS011;62837;51.082;13.744;2023-05-16T05:05:41;8.40;;;6.80;;
74401;SDS011;62837;51.082;13.744;2023-05-16T05:08:13;9.30;;;7.60;;
74401;SDS011;62837;51.082;13.744;2023-05-16T05:10:43;7.20;;;5.60;;
74401;SDS011;62837;51.082;13.744;2023-05-16T05:13:14;9.70;;;7.40;;
74401;SDS011;62837;51.082;13.744;2023-05-16T05:15:45;11.70;;;6.60;;
74401;SDS011;62837;51.082;13.744;2023-05-16T05:18:17;17.80;;;7.90;;
74401;SDS011;62837;51.082;13.744;2023-05-16T05:20:48;8.20;;;6.40;;
74401;SDS011;62837;51.082;13.744;2023-05-16T05:23:19;9.10;;;5.20;;
74401;SDS011;62837;51.082;13.744;2023-05-16T05:25:50;8.70;;;6.40;;
74401;SDS011;62837;51.082;13.744;2023-05-16T05:28:21;7.60;;;5.50;;
74401;SDS011;62837;51.082;13.744;2023-05-16T05:30:52;9.00;;;7.70;;
74401;SDS011;62837;51.082;13.744;2023-05-16T05:33:25;10.70;;;8.10;;
74401;SDS011;62837;51.082;13.744;2023-05-16T05:35:56;11.50;;;7.90;;
74401;SDS011;62837;51.082;13.744;2023-05-16T05:38:30;8.60;;;6.30;;
74401;SDS011;62837;51.082;13.744;2023-05-16T05:41:01;12.90;;;8.70;;
74401;SDS011;62837;51.082;13.744;2023-05-16T05:43:32;10.60;;;8.40;;
74401;SDS011;62837;51.082;13.744;2023-05-16T05:46:03;13.00;;;9.00;;
74401;SDS011;62837;51.082;13.744;2023-05-16T05:48:35;13.40;;;8.50;;
74401;SDS011;62837;51.082;13.744;2023-05-16T05:51:05;10.40;;;8.70;;
74401;SDS011;62837;51.082;13.744;2023-05-16T05:53:36;11.70;;;8.50;;
74401;SDS011;62837;51.082;13.744;2023-05-16T05:56:07;10.70;;;7.80;;
74401;SDS011;62837;51.082;13.744;2023-05-16T05:58:37;12.30;;;9.90;;
74401;SDS011;62837;51.082;13.744;2023-05-16T06:01:09;12.00;;;9.30;;
74401;SDS011;62837;51.082;13.744;2023-05-16T06:03:39;9.30;;;7.40;;
74401;SDS011;62837;51.082;13.744;2023-05-16T06:06:11;11.70;;;8.50;;
74401;SDS011;62837;51.082;13.744;2023-05-16T06:08:42;11.10;;;8.50;;
74401;SDS011;62837;51.082;13.744;2023-05-16T06:11:13;13.30;;;8.60;;
74401;SDS011;62837;51.082;13.744;2023-05-16T06:13:44;11.90;;;9.20;;
74401;SDS011;62837;51.082;13.744;2023-05-16T06:16:14;15.30;;;10.10;;
74401;SDS011;62837;51.082;13.744;2023-05-16T06:18:45;9.40;;;7.60;;
74401;SDS011;62837;51.082;13.744;2023-05-16T06:21:16;12.90;;;9.30;;
74401;SDS011;62837;51.082;13.744;2023-05-16T06:23:47;15.30;;;9.30;;
74401;SDS011;62837;51.082;13.744;2023-05-16T06:26:18;8.90;;;6.00;;
74401;SDS011;62837;51.082;13.744;2023-05-16T06:28:49;18.90;;;11.60;;
74401;SDS011;62837;51.082;13.744;2023-05-16T06:31:19;10.30;;;7.80;;
74401;SDS011;62837;51.082;13.744;2023-05-16T06:33:50;15.10;;;10.10;;
74401;SDS011;62837;51.082;13.744;2023-05-16T06:36:22;17.50;;;12.30;;
74401;SDS011;62837;51.082;13.744;2023-05-16T06:38:52;16.90;;;11.40;;
74401;SDS011;62837;51.082;13.744;2023-05-16T06:41:23;17.40;;;12.80;;
74401;SDS011;62837;51.082;13.744;2023-05-16T06:43:54;14.40;;;10.80;;
74401;SDS011;62837;51.082;13.744;2023-05-16T06:46:25;18.70;;;13.90;;
74401;SDS011;62837;51.082;13.744;2023-05-16T06:48:55;15.50;;;11.50;;
74401;SDS011;62837;51.082;13.744;2023-05-16T06:51:26;16.40;;;12.00;;
74401;SDS011;62837;51.082;13.744;2023-05-16T06:53:58;19.40;;;14.60;;
74401;SDS011;62837;51.082;13.744;2023-05-16T06:56:31;17.20;;;14.00;;
74401;SDS011;62837;51.082;13.744;2023-05-16T06:59:02;20.90;;;14.10;;
74401;SDS011;62837;51.082;13.744;2023-05-16T07:01:33;16.20;;;12.10;;
74401;SDS011;62837;51.082;13.744;2023-05-16T07:04:04;17.10;;;12.90;;
74401;SDS011;62837;51.082;13.744;2023-05-16T07:06:35;16.20;;;12.20;;
74401;SDS011;62837;51.082;13.744;2023-05-16T07:09:06;15.50;;;11.20;;
74401;SDS011;62837;51.082;13.744;2023-05-16T07:11:37;15.90;;;11.30;;
74401;SDS011;62837;51.082;13.744;2023-05-16T07:14:07;14.00;;;10.70;;
74401;SDS011;62837;51.082;13.744;2023-05-16T07:16:38;12.50;;;9.80;;
74401;SDS011;62837;51.082;13.744;2023-05-16T07:19:09;13.50;;;10.00;;
74401;SDS011;62837;51.082;13.744;2023-05-16T07:21:40;14.70;;;11.70;;
74401;SDS011;62837;51.082;13.744;2023-05-16T07:24:11;11.80;;;8.70;;
74401;SDS011;62837;51.082;13.744;2023-05-16T07:26:41;12.20;;;9.00;;
74401;SDS011;62837;51.082;13.744;2023-05-16T07:29:12;12.00;;;8.90;;
74401;SDS011;62837;51.082;13.744;2023-05-16T07:31:43;10.50;;;8.50;;
74401;SDS011;62837;51.082;13.744;2023-05-16T07:34:14;12.10;;;8.50;;
74401;SDS011;62837;51.082;13.744;2023-05-16T07:36:45;10.00;;;7.50;;
74401;SDS011;62837;51.082;13.744;2023-05-16T07:39:15;13.80;;;9.00;;
74401;SDS011;62837;51.082;13.744;2023-05-16T07:41:46;10.90;;;8.10;;
74401;SDS011;62837;51.082;13.744;2023-05-16T07:44:17;10.00;;;6.00;;
74401;SDS011;62837;51.082;13.744;2023-05-16T07:46:47;10.50;;;7.50;;
74401;SDS011;62837;51.082;13.744;2023-05-16T07:49:18;10.00;;;6.30;;
74401;SDS011;62837;51.082;13.744;2023-05-16T07:51:49;14.50;;;7.50;;
74401;SDS011;62837;51.082;13.744;2023-05-16T07:54:20;10.50;;;7.00;;
74401;SDS011;62837;51.082;13.744;2023-05-16T07:56:50;10.70;;;6.30;;
74401;SDS011;62837;51.082;13.744;2023-05-16T07:59:21;10.30;;;7.50;;
74401;SDS011;62837;51.082;13.744;2023-05-16T08:01:52;11.00;;;7.20;;
74401;SDS011;62837;51.082;13.744;2023-05-16T08:04:23;11.70;;;6.90;;
74401;SDS011;62837;51.082;13.744;2023-05-16T08:06:54;8.70;;;6.10;;
74401;SDS011;62837;51.082;13.744;2023-05-16T08:09:25;7.90;;;5.60;;
74401;SDS011;62837;51.082;13.744;2023-05-16T08:11:55;9.00;;;6.60;;
74401;SDS011;62837;51.082;13.744;2023-05-16T08:14:30;10.80;;;7.10;;
74401;SDS011;62837;51.082;13.744;2023-05-16T08:17:01;10.10;;;7.00;;
74401;SDS011;62837;51.082;13.744;2023-05-16T08:19:33;5.90;;;4.70;;
74401;SDS011;62837;51.082;13.744;2023-05-16T08:22:05;9.30;;;6.60;;
74401;SDS011;62837;51.082;13.744;2023-05-16T08:24:37;9.20;;;5.10;;
74401;SDS011;62837;51.082;13.744;2023-05-16T08:27:08;10.10;;;6.10;;
74401;SDS011;62837;51.082;13.744;2023-05-16T08:29:41;7.50;;;6.30;;
74401;SDS011;62837;51.082;13.744;2023-05-16T08:32:11;7.50;;;5.00;;
74401;SDS011;62837;51.082;13.744;2023-05-16T08:34:43;8.10;;;4.70;;
74401;SDS011;62837;51.082;13.744;2023-05-16T08:37:13;8.30;;;6.70;;
74401;SDS011;62837;51.082;13.744;2023-05-16T08:39:44;14.60;;;6.50;;
74401;SDS011;62837;51.082;13.744;2023-05-16T08:42:15;9.50;;;5.90;;
74401;SDS011;62837;51.082;13.744;2023-05-16T08:44:46;10.70;;;6.80;;
74401;SDS011;62837;51.082;13.744;2023-05-16T08:47:17;7.70;;;5.40;;
74401;SDS011;62837;51.082;13.744;2023-05-16T08:49:50;6.00;;;5.20;;
74401;SDS011;62837;51.082;13.744;2023-05-16T08:52:25;8.70;;;6.10;;
74401;SDS011;62837;51.082;13.744;2023-05-16T08:54:56;8.60;;;5.40;;
74401;SDS011;62837;51.082;13.744;2023-05-16T08:57:38;8.00;;;5.50;;
74401;SDS011;62837;51.082;13.744;2023-05-16T09:02:41;8.30;;;5.20;;
74401;SDS011;62837;51.082;13.744;2023-05-16T09:05:13;7.00;;;5.30;;
74401;SDS011;62837;51.082;13.744;2023-05-16T09:07:45;11.70;;;6.10;;
74401;SDS011;62837;51.082;13.744;2023-05-16T09:10:16;7.70;;;5.00;;
74401;SDS011;62837;51.082;13.744;2023-05-16T09:12:47;7.90;;;5.20;;
74401;SDS011;62837;51.082;13.744;2023-05-16T09:15:18;6.10;;;4.30;;
74401;SDS011;62837;51.082;13.744;2023-05-16T09:17:49;6.20;;;4.50;;
74401;SDS011;62837;51.082;13.744;2023-05-16T09:20:20;7.60;;;4.90;;
74401;SDS011;62837;51.082;13.744;2023-05-16T09:22:51;8.00;;;5.30;;
74401;SDS011;62837;51.082;13.744;2023-05-16T09:25:24;6.20;;;4.70;;
74401;SDS011;62837;51.082;13.744;2023-05-16T09:27:58;6.50;;;3.40;;
74401;SDS011;62837;51.082;13.744;2023-05-16T09:30:31;7.10;;;5.30;;
74401;SDS011;62837;51.082;13.744;2023-05-16T09:33:03;14.00;;;6.20;;
74401;SDS011;62837;51.082;13.744;2023-05-16T09:35:35;10.10;;;5.50;;
74401;SDS011;62837;51.082;13.744;2023-05-16T09:38:16;8.60;;;5.40;;
74401;SDS011;62837;51.082;13.744;2023-05-16T09:40:47;9.50;;;6.10;;
74401;SDS011;62837;51.082;13.744;2023-05-16T09:43:20;8.50;;;5.40;;
74401;SDS011;62837;51.082;13.744;2023-05-16T09:45:54;8.20;;;4.40;;
74401;SDS011;62837;51.082;13.744;2023-05-16T09:48:29;8.60;;;4.60;;
74401;SDS011;62837;51.082;13.744;2023-05-16T09:51:02;8.00;;;4.70;;
74401;SDS011;62837;51.082;13.744;2023-05-16T09:53:34;5.60;;;3.50;;
74401;SDS011;62837;51.082;13.744;2023-05-16T09:56:09;4.70;;;3.30;;
74401;SDS011;62837;51.082;13.744;2023-05-16T09:58:43;8.00;;;4.50;;
74401;SDS011;62837;51.082;13.744;2023-05-16T10:01:14;11.30;;;4.20;;
74401;SDS011;62837;51.082;13.744;2023-05-16T10:03:45;8.50;;;4.60;;
74401;SDS011;62837;51.082;13.744;2023-05-16T10:06:16;7.60;;;4.20;;
74401;SDS011;62837;51.082;13.744;2023-05-16T10:08:48;6.80;;;3.50;;
74401;SDS011;62837;51.082;13.744;2023-05-16T10:11:20;6.40;;;4.50;;
74401;SDS011;62837;51.082;13.744;2023-05-16T10:13:50;4.70;;;3.30;;
74401;SDS011;62837;51.082;13.744;2023-05-16T10:16:22;5.70;;;2.80;;
74401;SDS011;62837;51.082;13.744;2023-05-16T10:18:54;8.10;;;4.10;;
74401;SDS011;62837;51.082;13.744;2023-05-16T10:21:25;6.10;;;3.60;;
74401;SDS011;62837;51.082;13.744;2023-05-16T10:24:01;7.00;;;3.60;;
74401;SDS011;62837;51.082;13.744;2023-05-16T10:26:35;6.20;;;4.00;;
74401;SDS011;62837;51.082;13.744;2023-05-16T10:29:05;7.70;;;3.80;;
74401;SDS011;62837;51.082;13.744;2023-05-16T10:31:37;7.20;;;4.70;;
74401;SDS011;62837;51.082;13.744;2023-05-16T10:34:08;5.70;;;4.10;;
74401;SDS011;62837;51.082;13.744;2023-05-16T10:36:39;7.60;;;3.30;;
74401;SDS011;62837;51.082;13.744;2023-05-16T10:39:10;6.30;;;3.70;;
74401;SDS011;62837;51.082;13.744;2023-05-16T10:41:42;9.60;;;3.90;;
74401;SDS011;62837;51.082;13.744;2023-05-16T10:44:13;5.40;;;3.60;;
74401;SDS011;62837;51.082;13.744;2023-05-16T10:46:46;6.30;;;4.20;;
74401;SDS011;62837;51.082;13.744;2023-05-16T10:49:21;5.80;;;3.40;;
74401;SDS011;62837;51.082;13.744;2023-05-16T10:52:02;5.30;;;3.60;;
74401;SDS011;62837;51.082;13.744;2023-05-16T10:54:36;3.80;;;2.40;;
74401;SDS011;62837;51.082;13.744;2023-05-16T10:57:09;6.70;;;3.50;;
74401;SDS011;62837;51.082;13.744;2023-05-16T10:59:44;6.40;;;3.30;;
74401;SDS011;62837;51.082;13.744;2023-05-16T11:02:23;5.50;;;3.30;;
74401;SDS011;62837;51.082;13.744;2023-05-16T11:04:56;6.80;;;3.10;;
74401;SDS011;62837;51.082;13.744;2023-05-16T11:07:31;5.60;;;2.90;;
74401;SDS011;62837;51.082;13.744;2023-05-16T11:10:04;5.00;;;3.30;;
74401;SDS011;62837;51.082;13.744;2023-05-16T11:12:37;4.10;;;2.70;;
74401;SDS011;62837;51.082;13.744;2023-05-16T11:15:19;7.10;;;3.20;;
74401;SDS011;62837;51.082;13.744;2023-05-16T11:17:54;5.60;;;3.20;;
74401;SDS011;62837;51.082;13.744;2023-05-16T11:20:34;6.90;;;3.00;;
74401;SDS011;62837;51.082;13.744;2023-05-16T11:23:20;5.90;;;3.10;;
74401;SDS011;62837;51.082;13.744;2023-05-16T11:25:55;3.90;;;2.80;;
74401;SDS011;62837;51.082;13.744;2023-05-16T11:28:28;4.00;;;3.20;;
74401;SDS011;62837;51.082;13.744;2023-05-16T11:31:00;5.50;;;2.90;;
74401;SDS011;62837;51.082;13.744;2023-05-16T11:33:32;5.00;;;2.80;;
74401;SDS011;62837;51.082;13.744;2023-05-16T11:36:04;4.60;;;2.60;;
74401;SDS011;62837;51.082;13.744;2023-05-16T11:38:39;3.50;;;2.70;;
74401;SDS011;62837;51.082;13.744;2023-05-16T11:41:11;5.20;;;2.30;;
74401;SDS011;62837;51.082;13.744;2023-05-16T11:43:44;5.10;;;2.60;;
74401;SDS011;62837;51.082;13.744;2023-05-16T11:46:15;5.00;;;2.60;;
74401;SDS011;62837;51.082;13.744;2023-05-16T11:48:46;3.00;;;2.20;;
74401;SDS011;62837;51.082;13.744;2023-05-16T11:51:18;3.50;;;2.50;;
74401;SDS011;62837;51.082;13.744;2023-05-16T11:53:49;3.20;;;2.30;;
74401;SDS011;62837;51.082;13.744;2023-05-16T11:56:21;4.70;;;2.30;;
74401;SDS011;62837;51.082;13.744;2023-05-16T11:58:52;4.40;;;2.60;;
74401;SDS011;62837;51.082;13.744;2023-05-16T12:01:23;3.30;;;2.20;;
74401;SDS011;62837;51.082;13.744;2023-05-16T12:03:59;4.70;;;2.30;;
74401;SDS011;62837;51.082;13.744;2023-05-16T12:06:31;4.30;;;2.30;;
74401;SDS011;62837;51.082;13.744;2023-05-16T12:09:01;3.70;;;2.40;;
74401;SDS011;62837;51.082;13.744;2023-05-16T12:11:38;5.60;;;2.20;;
74401;SDS011;62837;51.082;13.744;2023-05-16T12:14:10;6.30;;;2.30;;
74401;SDS011;62837;51.082;13.744;2023-05-16T12:16:41;4.60;;;2.00;;
74401;SDS011;62837;51.082;13.744;2023-05-16T12:19:13;3.10;;;1.90;;
74401;SDS011;62837;51.082;13.744;2023-05-16T12:21:44;3.00;;;1.80;;
74401;SDS011;62837;51.082;13.744;2023-05-16T12:24:15;5.00;;;1.90;;
74401;SDS011;62837;51.082;13.744;2023-05-16T12:26:46;4.00;;;2.20;;
74401;SDS011;62837;51.082;13.744;2023-05-16T12:29:17;4.60;;;2.20;;
74401;SDS011;62837;51.082;13.744;2023-05-16T12:31:52;4.70;;;1.90;;
74401;SDS011;62837;51.082;13.744;2023-05-16T12:34:27;3.10;;;1.70;;
74401;SDS011;62837;51.082;13.744;2023-05-16T12:36:58;3.70;;;2.00;;
74401;SDS011;62837;51.082;13.744;2023-05-16T12:39:29;3.50;;;1.70;;
74401;SDS011;62837;51.082;13.744;2023-05-16T12:42:06;5.10;;;2.20;;
74401;SDS011;62837;51.082;13.744;2023-05-16T12:44:40;4.00;;;1.90;;
74401;SDS011;62837;51.082;13.744;2023-05-16T12:47:14;4.20;;;1.70;;
74401;SDS011;62837;51.082;13.744;2023-05-16T12:49:45;3.40;;;2.40;;
74401;SDS011;62837;51.082;13.744;2023-05-16T12:52:18;4.10;;;1.60;;
74401;SDS011;62837;51.082;13.744;2023-05-16T12:54:49;3.10;;;1.70;;
74401;SDS011;62837;51.082;13.744;2023-05-16T12:57:20;2.00;;;1.40;;
74401;SDS011;62837;51.082;13.744;2023-05-16T12:59:51;3.60;;;1.90;;
74401;SDS011;62837;51.082;13.744;2023-05-16T13:02:21;2.30;;;1.50;;
74401;SDS011;62837;51.082;13.744;2023-05-16T13:04:53;2.80;;;1.40;;
74401;SDS011;62837;51.082;13.744;2023-05-16T13:07:24;4.70;;;2.00;;
74401;SDS011;62837;51.082;13.744;2023-05-16T13:09:55;3.40;;;2.30;;
74401;SDS011;62837;51.082;13.744;2023-05-16T13:12:26;5.00;;;1.80;;
74401;SDS011;62837;51.082;13.744;2023-05-16T13:14:56;3.30;;;1.40;;
74401;SDS011;62837;51.082;13.744;2023-05-16T13:17:27;4.30;;;2.20;;
74401;SDS011;62837;51.082;13.744;2023-05-16T13:19:58;5.80;;;2.10;;
74401;SDS011;62837;51.082;13.744;2023-05-16T13:22:31;2.90;;;2.10;;
74401;SDS011;62837;51.082;13.744;2023-05-16T13:25:02;2.70;;;2.00;;
74401;SDS011;62837;51.082;13.744;2023-05-16T13:27:35;2.70;;;1.90;;
74401;SDS011;62837;51.082;13.744;2023-05-16T13:30:07;3.40;;;1.90;;
74401;SDS011;62837;51.082;13.744;2023-05-16T13:32:38;2.80;;;1.60;;
74401;SDS011;62837;51.082;13.744;2023-05-16T13:35:09;3.20;;;1.60;;
74401;SDS011;62837;51.082;13.744;2023-05-16T13:37:41;4.50;;;2.20;;
74401;SDS011;62837;51.082;13.744;2023-05-16T13:40:12;3.30;;;1.50;;
74401;SDS011;62837;51.082;13.744;2023-05-16T13:42:42;3.20;;;1.60;;
74401;SDS011;62837;51.082;13.744;2023-05-16T13:45:13;2.00;;;1.20;;
74401;SDS011;62837;51.082;13.744;2023-05-16T13:47:44;1.80;;;0.90;;
74401;SDS011;62837;51.082;13.744;2023-05-16T13:50:15;4.60;;;1.40;;
74401;SDS011;62837;51.082;13.744;2023-05-16T13:52:46;2.50;;;1.30;;
74401;SDS011;62837;51.082;13.744;2023-05-16T13:55:17;5.60;;;1.30;;
74401;SDS011;62837;51.082;13.744;2023-05-16T13:57:48;2.00;;;1.10;;
74401;SDS011;62837;51.082;13.744;2023-05-16T14:00:19;2.50;;;1.20;;
74401;SDS011;62837;51.082;13.744;2023-05-16T14:02:53;3.60;;;1.60;;
74401;SDS011;62837;51.082;13.744;2023-05-16T14:05:24;1.90;;;1.30;;
74401;SDS011;62837;51.082;13.744;2023-05-16T14:07:55;1.80;;;1.20;;
74401;SDS011;62837;51.082;13.744;2023-05-16T14:10:25;3.00;;;1.90;;
74401;SDS011;62837;51.082;13.744;2023-05-16T14:12:58;3.00;;;1.70;;
74401;SDS011;62837;51.082;13.744;2023-05-16T14:15:29;2.30;;;1.00;;
74401;SDS011;62837;51.082;13.744;2023-05-16T14:18:00;5.20;;;1.30;;
74401;SDS011;62837;51.082;13.744;2023-05-16T14:20:31;4.00;;;1.50;;
74401;SDS011;62837;51.082;13.744;2023-05-16T14:23:02;1.40;;;0.80;;
74401;SDS011;62837;51.082;13.744;2023-05-16T14:25:33;3.40;;;1.10;;
74401;SDS011;62837;51.082;13.744;2023-05-16T14:28:05;3.10;;;1.00;;
74401;SDS011;62837;51.082;13.744;2023-05-16T14:30:35;2.50;;;1.10;;
74401;SDS011;62837;51.082;13.744;2023-05-16T14:33:06;2.80;;;1.00;;
74401;SDS011;62837;51.082;13.744;2023-05-16T14:35:38;3.00;;;1.10;;
74401;SDS011;62837;51.082;13.744;2023-05-16T14:38:08;2.70;;;1.60;;
74401;SDS011;62837;51.082;13.744;2023-05-16T14:40:39;9.30;;;2.30;;
74401;SDS011;62837;51.082;13.744;2023-05-16T14:43:10;4.20;;;1.60;;
74401;SDS011;62837;51.082;13.744;2023-05-16T14:45:41;4.00;;;1.20;;
74401;SDS011;62837;51.082;13.744;2023-05-16T14:48:12;4.40;;;1.30;;
74401;SDS011;62837;51.082;13.744;2023-05-16T14:50:43;3.30;;;1.00;;
74401;SDS011;62837;51.082;13.744;2023-05-16T14:53:14;4.10;;;1.20;;
74401;SDS011;62837;51.082;13.744;2023-05-16T14:55:49;6.30;;;1.60;;
74401;SDS011;62837;51.082;13.744;2023-05-16T14:58:20;5.00;;;1.70;;
74401;SDS011;62837;51.082;13.744;2023-05-16T15:00:51;6.90;;;1.60;;
74401;SDS011;62837;51.082;13.744;2023-05-16T15:03:22;5.80;;;1.20;;
74401;SDS011;62837;51.082;13.744;2023-05-16T15:05:53;2.50;;;1.10;;
74401;SDS011;62837;51.082;13.744;2023-05-16T15:08:24;3.60;;;0.90;;